Accueil
METAR-TAF:

METAR-TAF

Aéroports :

Chambery / Aix-Les-Bains, France

Aéroport de Chambéry - Savoie

latitude: 45-39N, longitude: 005-53E, altitude: 235 m

Observation

Le bulletin a été fait il y a 39 minutes, à 19:00 UTC
Vent 8 kt de nord/nord-ouest, variant entre ouest/nord-ouest et nord
Température 25°C
Humidité 47%
Pression 1019 hPa
Visibilité 10 km ou plus
Quelques nuages à une hauteur de 6800 ft

METAR: LFLB 241900Z AUTO 33008KT 290V350 9999 FEW068 25/13 Q1019 NOSIG

Heure: 21:39 (19:39 UTC)

Prévision

Le bulletin a été fait il y a 8 heures et 39 minutes, à 11:00 UTC
Prévision valable du 24 à 12 UTC au 25 à 12 UTC
Vent 12 kt de nord
Visibilité 10 km ou plus
pas de nuages en-dessous de 1500 mètres et pas de cumulonimbus.
Temporairement
du 24 à 12 UTC au 24 à 18 UTC
Quelques nuages à une hauteur de 5000 ft

TAF: LFLB 241100Z 2412/2512 35012KT CAVOK TEMPO 2412/2418 FEW050

Observations et prévisions météorologiques de plus de 4000 aéroports (messages METAR et TAF).

Les stations disponibles sont représentées par des disques jaunes et rouges sur la carte.

Passer la souris dessus pour voir le nom de la station.

Cliquer dessus pour voir les observations et prévisions météorologiques.

Pour changer de carte: cliquez sur les boutons verts avec une croix noire pour zoomer, sur le bouton vert avec un tiret pour effectuer un zoom arrière, ou sur les flèches vertes pour les cartes adjacentes.


METAR-TAF: